sensor_id;sensor_type;location;lat;lon;timestamp;P1;durP1;ratioP1;P2;durP2;ratioP2
5587;SDS011;2816;49.778;9.986;2023-04-15T00:00:09;6.70;;;3.90;;
5587;SDS011;2816;49.778;9.986;2023-04-15T00:02:36;5.73;;;4.23;;
5587;SDS011;2816;49.778;9.986;2023-04-15T00:05:04;4.63;;;3.80;;
5587;SDS011;2816;49.778;9.986;2023-04-15T00:07:31;5.73;;;3.60;;
5587;SDS011;2816;49.778;9.986;2023-04-15T00:09:58;5.00;;;3.73;;
5587;SDS011;2816;49.778;9.986;2023-04-15T00:12:25;8.63;;;3.87;;
5587;SDS011;2816;49.778;9.986;2023-04-15T00:14:55;6.87;;;3.80;;
5587;SDS011;2816;49.778;9.986;2023-04-15T00:17:22;4.20;;;3.47;;
5587;SDS011;2816;49.778;9.986;2023-04-15T00:19:50;8.17;;;4.00;;
5587;SDS011;2816;49.778;9.986;2023-04-15T00:22:16;4.80;;;3.70;;
5587;SDS011;2816;49.778;9.986;2023-04-15T00:24:43;11.73;;;3.50;;
5587;SDS011;2816;49.778;9.986;2023-04-15T00:27:10;4.10;;;3.67;;
5587;SDS011;2816;49.778;9.986;2023-04-15T00:29:37;4.30;;;3.60;;
5587;SDS011;2816;49.778;9.986;2023-04-15T00:32:06;13.30;;;3.50;;
5587;SDS011;2816;49.778;9.986;2023-04-15T00:34:33;7.70;;;4.07;;
5587;SDS011;2816;49.778;9.986;2023-04-15T00:37:00;5.07;;;3.83;;
5587;SDS011;2816;49.778;9.986;2023-04-15T00:39:27;4.60;;;3.90;;
5587;SDS011;2816;49.778;9.986;2023-04-15T00:41:54;4.13;;;3.73;;
5587;SDS011;2816;49.778;9.986;2023-04-15T00:44:22;3.70;;;3.40;;
5587;SDS011;2816;49.778;9.986;2023-04-15T00:46:50;4.10;;;3.70;;
5587;SDS011;2816;49.778;9.986;2023-04-15T00:49:18;5.50;;;3.77;;
5587;SDS011;2816;49.778;9.986;2023-04-15T00:51:46;5.20;;;3.67;;
5587;SDS011;2816;49.778;9.986;2023-04-15T00:54:13;5.90;;;4.23;;
5587;SDS011;2816;49.778;9.986;2023-04-15T00:56:40;3.73;;;3.43;;
5587;SDS011;2816;49.778;9.986;2023-04-15T00:59:07;6.43;;;3.87;;
5587;SDS011;2816;49.778;9.986;2023-04-15T01:01:35;5.40;;;3.33;;
5587;SDS011;2816;49.778;9.986;2023-04-15T01:04:02;4.53;;;3.70;;
5587;SDS011;2816;49.778;9.986;2023-04-15T01:06:31;3.97;;;3.57;;
5587;SDS011;2816;49.778;9.986;2023-04-15T01:08:58;4.70;;;3.90;;
5587;SDS011;2816;49.778;9.986;2023-04-15T01:11:26;5.37;;;4.10;;
5587;SDS011;2816;49.778;9.986;2023-04-15T01:13:54;3.97;;;3.57;;
5587;SDS011;2816;49.778;9.986;2023-04-15T01:16:23;6.80;;;4.00;;
5587;SDS011;2816;49.778;9.986;2023-04-15T01:18:51;4.53;;;3.80;;
5587;SDS011;2816;49.778;9.986;2023-04-15T01:21:18;6.60;;;4.10;;
5587;SDS011;2816;49.778;9.986;2023-04-15T01:23:47;6.63;;;4.20;;
5587;SDS011;2816;49.778;9.986;2023-04-15T01:26:18;4.50;;;4.10;;
5587;SDS011;2816;49.778;9.986;2023-04-15T01:28:45;5.17;;;4.10;;
5587;SDS011;2816;49.778;9.986;2023-04-15T01:31:13;6.90;;;4.43;;
5587;SDS011;2816;49.778;9.986;2023-04-15T01:33:41;5.17;;;4.43;;
5587;SDS011;2816;49.778;9.986;2023-04-15T01:36:08;6.27;;;4.40;;
5587;SDS011;2816;49.778;9.986;2023-04-15T01:38:35;4.77;;;4.10;;
5587;SDS011;2816;49.778;9.986;2023-04-15T01:41:03;4.40;;;4.00;;
5587;SDS011;2816;49.778;9.986;2023-04-15T01:43:33;6.00;;;4.03;;
5587;SDS011;2816;49.778;9.986;2023-04-15T01:46:00;5.30;;;4.27;;
5587;SDS011;2816;49.778;9.986;2023-04-15T01:48:27;5.57;;;4.10;;
5587;SDS011;2816;49.778;9.986;2023-04-15T01:50:54;5.20;;;4.50;;
5587;SDS011;2816;49.778;9.986;2023-04-15T01:53:22;5.50;;;4.00;;
5587;SDS011;2816;49.778;9.986;2023-04-15T01:55:49;6.60;;;4.93;;
5587;SDS011;2816;49.778;9.986;2023-04-15T01:58:17;7.63;;;3.90;;
5587;SDS011;2816;49.778;9.986;2023-04-15T02:00:45;6.60;;;4.60;;
5587;SDS011;2816;49.778;9.986;2023-04-15T02:03:12;8.53;;;4.37;;
5587;SDS011;2816;49.778;9.986;2023-04-15T02:05:39;5.17;;;4.30;;
5587;SDS011;2816;49.778;9.986;2023-04-15T02:08:06;6.33;;;4.30;;
5587;SDS011;2816;49.778;9.986;2023-04-15T02:10:34;4.53;;;3.80;;
5587;SDS011;2816;49.778;9.986;2023-04-15T02:13:01;6.10;;;5.00;;
5587;SDS011;2816;49.778;9.986;2023-04-15T02:15:28;6.27;;;4.57;;
5587;SDS011;2816;49.778;9.986;2023-04-15T02:17:56;5.70;;;4.07;;
5587;SDS011;2816;49.778;9.986;2023-04-15T02:20:24;4.97;;;4.43;;
5587;SDS011;2816;49.778;9.986;2023-04-15T02:22:51;7.77;;;4.87;;
5587;SDS011;2816;49.778;9.986;2023-04-15T02:25:18;6.43;;;5.07;;
5587;SDS011;2816;49.778;9.986;2023-04-15T02:27:45;5.57;;;4.20;;
5587;SDS011;2816;49.778;9.986;2023-04-15T02:30:12;6.27;;;4.57;;
5587;SDS011;2816;49.778;9.986;2023-04-15T02:32:39;4.20;;;3.80;;
5587;SDS011;2816;49.778;9.986;2023-04-15T02:35:10;5.20;;;4.20;;
5587;SDS011;2816;49.778;9.986;2023-04-15T02:37:37;6.47;;;4.67;;
5587;SDS011;2816;49.778;9.986;2023-04-15T02:40:07;4.40;;;4.00;;
5587;SDS011;2816;49.778;9.986;2023-04-15T02:42:36;7.17;;;4.60;;
5587;SDS011;2816;49.778;9.986;2023-04-15T02:45:04;5.80;;;4.40;;
5587;SDS011;2816;49.778;9.986;2023-04-15T02:47:32;4.70;;;4.10;;
5587;SDS011;2816;49.778;9.986;2023-04-15T02:49:59;4.70;;;4.03;;
5587;SDS011;2816;49.778;9.986;2023-04-15T02:52:27;4.87;;;4.37;;
5587;SDS011;2816;49.778;9.986;2023-04-15T02:54:54;7.63;;;4.73;;
5587;SDS011;2816;49.778;9.986;2023-04-15T02:57:24;7.73;;;4.10;;
5587;SDS011;2816;49.778;9.986;2023-04-15T02:59:52;7.50;;;4.60;;
5587;SDS011;2816;49.778;9.986;2023-04-15T03:02:19;4.47;;;4.00;;
5587;SDS011;2816;49.778;9.986;2023-04-15T03:04:46;9.23;;;4.47;;
5587;SDS011;2816;49.778;9.986;2023-04-15T03:07:13;5.37;;;4.60;;
5587;SDS011;2816;49.778;9.986;2023-04-15T03:09:43;4.73;;;4.10;;
5587;SDS011;2816;49.778;9.986;2023-04-15T03:12:10;10.83;;;4.20;;
5587;SDS011;2816;49.778;9.986;2023-04-15T03:14:37;5.60;;;4.30;;
5587;SDS011;2816;49.778;9.986;2023-04-15T03:17:04;7.13;;;4.57;;
5587;SDS011;2816;49.778;9.986;2023-04-15T03:19:31;8.40;;;4.90;;
5587;SDS011;2816;49.778;9.986;2023-04-15T03:21:58;9.03;;;4.60;;
5587;SDS011;2816;49.778;9.986;2023-04-15T03:24:25;4.37;;;3.93;;
5587;SDS011;2816;49.778;9.986;2023-04-15T03:26:55;5.77;;;4.23;;
5587;SDS011;2816;49.778;9.986;2023-04-15T03:29:22;5.90;;;4.27;;
5587;SDS011;2816;49.778;9.986;2023-04-15T03:31:48;9.23;;;4.23;;
5587;SDS011;2816;49.778;9.986;2023-04-15T03:34:16;4.20;;;3.80;;
5587;SDS011;2816;49.778;9.986;2023-04-15T03:36:43;5.07;;;4.20;;
5587;SDS011;2816;49.778;9.986;2023-04-15T03:39:10;8.00;;;4.70;;
5587;SDS011;2816;49.778;9.986;2023-04-15T03:41:37;4.30;;;3.60;;
5587;SDS011;2816;49.778;9.986;2023-04-15T03:44:05;5.10;;;4.20;;
5587;SDS011;2816;49.778;9.986;2023-04-15T03:46:32;4.33;;;3.77;;
5587;SDS011;2816;49.778;9.986;2023-04-15T03:48:59;4.97;;;3.73;;
5587;SDS011;2816;49.778;9.986;2023-04-15T03:51:26;5.97;;;4.50;;
5587;SDS011;2816;49.778;9.986;2023-04-15T03:53:53;9.23;;;4.33;;
5587;SDS011;2816;49.778;9.986;2023-04-15T03:56:20;4.93;;;3.90;;
5587;SDS011;2816;49.778;9.986;2023-04-15T03:58:47;5.03;;;4.30;;
5587;SDS011;2816;49.778;9.986;2023-04-15T04:01:15;6.13;;;4.00;;
5587;SDS011;2816;49.778;9.986;2023-04-15T04:03:42;12.00;;;4.20;;
5587;SDS011;2816;49.778;9.986;2023-04-15T04:06:10;4.37;;;3.97;;
5587;SDS011;2816;49.778;9.986;2023-04-15T04:08:37;7.37;;;4.20;;
5587;SDS011;2816;49.778;9.986;2023-04-15T04:11:04;4.43;;;3.60;;
5587;SDS011;2816;49.778;9.986;2023-04-15T04:13:31;4.70;;;3.80;;
5587;SDS011;2816;49.778;9.986;2023-04-15T04:15:58;7.37;;;4.67;;
5587;SDS011;2816;49.778;9.986;2023-04-15T04:18:27;5.03;;;3.90;;
5587;SDS011;2816;49.778;9.986;2023-04-15T04:20:53;9.00;;;4.13;;
5587;SDS011;2816;49.778;9.986;2023-04-15T04:23:20;6.90;;;4.30;;
5587;SDS011;2816;49.778;9.986;2023-04-15T04:25:47;6.90;;;3.90;;
5587;SDS011;2816;49.778;9.986;2023-04-15T04:28:15;5.77;;;3.77;;
5587;SDS011;2816;49.778;9.986;2023-04-15T04:30:41;5.70;;;4.00;;
5587;SDS011;2816;49.778;9.986;2023-04-15T04:33:09;5.50;;;3.73;;
5587;SDS011;2816;49.778;9.986;2023-04-15T04:35:37;5.30;;;3.63;;
5587;SDS011;2816;49.778;9.986;2023-04-15T04:38:04;6.43;;;4.53;;
5587;SDS011;2816;49.778;9.986;2023-04-15T04:40:31;5.10;;;3.90;;
5587;SDS011;2816;49.778;9.986;2023-04-15T04:42:58;4.47;;;3.67;;
5587;SDS011;2816;49.778;9.986;2023-04-15T04:45:25;6.97;;;3.73;;
5587;SDS011;2816;49.778;9.986;2023-04-15T04:47:52;5.27;;;3.93;;
5587;SDS011;2816;49.778;9.986;2023-04-15T04:50:19;4.10;;;3.53;;
5587;SDS011;2816;49.778;9.986;2023-04-15T04:52:47;4.87;;;3.80;;
5587;SDS011;2816;49.778;9.986;2023-04-15T04:55:14;5.50;;;4.23;;
5587;SDS011;2816;49.778;9.986;2023-04-15T04:57:42;5.17;;;3.70;;
5587;SDS011;2816;49.778;9.986;2023-04-15T05:00:09;5.33;;;4.30;;
5587;SDS011;2816;49.778;9.986;2023-04-15T05:02:36;4.67;;;4.27;;
5587;SDS011;2816;49.778;9.986;2023-04-15T05:05:04;6.43;;;4.20;;
5587;SDS011;2816;49.778;9.986;2023-04-15T05:07:31;9.80;;;4.20;;
5587;SDS011;2816;49.778;9.986;2023-04-15T05:10:00;4.07;;;3.40;;
5587;SDS011;2816;49.778;9.986;2023-04-15T05:12:27;5.27;;;3.30;;
5587;SDS011;2816;49.778;9.986;2023-04-15T05:14:54;6.67;;;4.07;;
5587;SDS011;2816;49.778;9.986;2023-04-15T05:17:21;11.33;;;4.40;;
5587;SDS011;2816;49.778;9.986;2023-04-15T05:19:48;5.00;;;4.50;;
5587;SDS011;2816;49.778;9.986;2023-04-15T05:22:15;5.00;;;4.07;;
5587;SDS011;2816;49.778;9.986;2023-04-15T05:24:42;4.90;;;4.00;;
5587;SDS011;2816;49.778;9.986;2023-04-15T05:27:10;10.17;;;3.90;;
5587;SDS011;2816;49.778;9.986;2023-04-15T05:29:37;3.83;;;3.50;;
5587;SDS011;2816;49.778;9.986;2023-04-15T05:32:05;3.50;;;3.20;;
5587;SDS011;2816;49.778;9.986;2023-04-15T05:34:32;5.73;;;3.93;;
5587;SDS011;2816;49.778;9.986;2023-04-15T05:36:59;6.23;;;4.03;;
5587;SDS011;2816;49.778;9.986;2023-04-15T05:39:26;5.90;;;4.13;;
5587;SDS011;2816;49.778;9.986;2023-04-15T05:41:53;5.80;;;4.43;;
5587;SDS011;2816;49.778;9.986;2023-04-15T05:44:21;6.30;;;4.90;;
5587;SDS011;2816;49.778;9.986;2023-04-15T05:46:48;5.07;;;4.20;;
5587;SDS011;2816;49.778;9.986;2023-04-15T05:49:15;4.83;;;4.00;;
5587;SDS011;2816;49.778;9.986;2023-04-15T05:51:42;6.93;;;4.03;;
5587;SDS011;2816;49.778;9.986;2023-04-15T05:54:09;4.00;;;3.50;;
5587;SDS011;2816;49.778;9.986;2023-04-15T05:56:36;6.97;;;4.00;;
5587;SDS011;2816;49.778;9.986;2023-04-15T05:59:03;4.87;;;3.43;;
5587;SDS011;2816;49.778;9.986;2023-04-15T06:01:32;4.40;;;3.63;;
5587;SDS011;2816;49.778;9.986;2023-04-15T06:03:59;5.77;;;3.80;;
5587;SDS011;2816;49.778;9.986;2023-04-15T06:06:27;6.50;;;4.57;;
5587;SDS011;2816;49.778;9.986;2023-04-15T06:08:53;7.80;;;4.10;;
5587;SDS011;2816;49.778;9.986;2023-04-15T06:11:21;5.63;;;3.80;;
5587;SDS011;2816;49.778;9.986;2023-04-15T06:13:48;4.40;;;3.70;;
5587;SDS011;2816;49.778;9.986;2023-04-15T06:16:15;4.90;;;3.80;;
5587;SDS011;2816;49.778;9.986;2023-04-15T06:18:43;5.60;;;4.30;;
5587;SDS011;2816;49.778;9.986;2023-04-15T06:21:11;4.30;;;3.50;;
5587;SDS011;2816;49.778;9.986;2023-04-15T06:23:38;9.27;;;3.93;;
5587;SDS011;2816;49.778;9.986;2023-04-15T06:26:06;5.60;;;4.40;;
5587;SDS011;2816;49.778;9.986;2023-04-15T06:28:33;15.40;;;4.07;;
5587;SDS011;2816;49.778;9.986;2023-04-15T06:31:00;5.03;;;4.03;;
5587;SDS011;2816;49.778;9.986;2023-04-15T06:33:27;6.37;;;3.70;;
5587;SDS011;2816;49.778;9.986;2023-04-15T06:35:56;7.53;;;3.90;;
5587;SDS011;2816;49.778;9.986;2023-04-15T06:38:22;5.73;;;3.47;;
5587;SDS011;2816;49.778;9.986;2023-04-15T06:40:49;5.27;;;3.70;;
5587;SDS011;2816;49.778;9.986;2023-04-15T06:43:16;5.13;;;3.93;;
5587;SDS011;2816;49.778;9.986;2023-04-15T06:45:44;10.27;;;3.57;;
5587;SDS011;2816;49.778;9.986;2023-04-15T06:48:11;6.50;;;4.03;;
5587;SDS011;2816;49.778;9.986;2023-04-15T06:50:38;5.27;;;3.67;;
5587;SDS011;2816;49.778;9.986;2023-04-15T06:53:07;6.50;;;3.80;;
5587;SDS011;2816;49.778;9.986;2023-04-15T06:55:33;5.60;;;3.87;;
5587;SDS011;2816;49.778;9.986;2023-04-15T06:58:00;9.00;;;3.53;;
5587;SDS011;2816;49.778;9.986;2023-04-15T07:00:27;7.30;;;3.70;;
5587;SDS011;2816;49.778;9.986;2023-04-15T07:02:54;6.10;;;3.87;;
5587;SDS011;2816;49.778;9.986;2023-04-15T07:05:21;6.27;;;3.80;;
5587;SDS011;2816;49.778;9.986;2023-04-15T07:07:49;5.03;;;3.50;;
5587;SDS011;2816;49.778;9.986;2023-04-15T07:10:18;4.00;;;3.63;;
5587;SDS011;2816;49.778;9.986;2023-04-15T07:12:45;5.20;;;3.70;;
5587;SDS011;2816;49.778;9.986;2023-04-15T07:15:14;6.00;;;3.70;;
5587;SDS011;2816;49.778;9.986;2023-04-15T07:17:41;5.20;;;3.80;;
5587;SDS011;2816;49.778;9.986;2023-04-15T07:20:08;7.53;;;4.40;;
5587;SDS011;2816;49.778;9.986;2023-04-15T07:22:36;4.27;;;3.63;;
5587;SDS011;2816;49.778;9.986;2023-04-15T07:25:04;7.77;;;4.40;;
5587;SDS011;2816;49.778;9.986;2023-04-15T07:27:33;4.30;;;3.90;;
5587;SDS011;2816;49.778;9.986;2023-04-15T07:30:00;4.20;;;3.80;;
5587;SDS011;2816;49.778;9.986;2023-04-15T07:32:27;7.10;;;4.93;;
5587;SDS011;2816;49.778;9.986;2023-04-15T07:34:54;7.83;;;4.47;;
5587;SDS011;2816;49.778;9.986;2023-04-15T07:37:21;4.40;;;4.00;;
5587;SDS011;2816;49.778;9.986;2023-04-15T07:39:48;6.60;;;4.13;;
5587;SDS011;2816;49.778;9.986;2023-04-15T07:42:15;8.80;;;4.90;;
5587;SDS011;2816;49.778;9.986;2023-04-15T07:44:44;5.13;;;4.63;;
5587;SDS011;2816;49.778;9.986;2023-04-15T07:47:10;10.87;;;5.30;;
5587;SDS011;2816;49.778;9.986;2023-04-15T07:49:37;5.13;;;4.67;;
5587;SDS011;2816;49.778;9.986;2023-04-15T07:52:04;3.70;;;3.40;;
5587;SDS011;2816;49.778;9.986;2023-04-15T07:54:32;5.20;;;4.10;;
5587;SDS011;2816;49.778;9.986;2023-04-15T07:56:59;6.97;;;5.10;;
5587;SDS011;2816;49.778;9.986;2023-04-15T07:59:27;4.83;;;4.20;;
5587;SDS011;2816;49.778;9.986;2023-04-15T08:01:56;7.10;;;4.93;;
5587;SDS011;2816;49.778;9.986;2023-04-15T08:04:23;6.77;;;4.90;;
5587;SDS011;2816;49.778;9.986;2023-04-15T08:06:51;5.67;;;4.87;;
5587;SDS011;2816;49.778;9.986;2023-04-15T08:09:18;5.50;;;4.70;;
5587;SDS011;2816;49.778;9.986;2023-04-15T08:11:47;5.53;;;4.50;;
5587;SDS011;2816;49.778;9.986;2023-04-15T08:14:14;8.03;;;4.47;;
5587;SDS011;2816;49.778;9.986;2023-04-15T08:16:41;8.23;;;4.70;;
5587;SDS011;2816;49.778;9.986;2023-04-15T08:19:10;7.50;;;4.10;;
5587;SDS011;2816;49.778;9.986;2023-04-15T08:21:37;4.40;;;4.00;;
5587;SDS011;2816;49.778;9.986;2023-04-15T08:24:04;6.80;;;4.20;;
5587;SDS011;2816;49.778;9.986;2023-04-15T08:26:32;5.33;;;2.90;;
5587;SDS011;2816;49.778;9.986;2023-04-15T08:28:58;6.73;;;4.63;;
5587;SDS011;2816;49.778;9.986;2023-04-15T08:31:26;4.60;;;3.80;;
5587;SDS011;2816;49.778;9.986;2023-04-15T08:33:55;6.80;;;4.40;;
5587;SDS011;2816;49.778;9.986;2023-04-15T08:36:24;4.63;;;3.80;;
5587;SDS011;2816;49.778;9.986;2023-04-15T08:38:52;5.60;;;3.83;;
5587;SDS011;2816;49.778;9.986;2023-04-15T08:41:20;6.10;;;4.20;;
5587;SDS011;2816;49.778;9.986;2023-04-15T08:43:51;6.90;;;4.47;;
5587;SDS011;2816;49.778;9.986;2023-04-15T08:46:19;4.93;;;4.30;;
5587;SDS011;2816;49.778;9.986;2023-04-15T08:48:46;5.50;;;4.13;;
5587;SDS011;2816;49.778;9.986;2023-04-15T08:51:15;9.37;;;4.20;;
5587;SDS011;2816;49.778;9.986;2023-04-15T08:53:44;6.33;;;4.43;;
5587;SDS011;2816;49.778;9.986;2023-04-15T08:56:12;6.60;;;4.77;;
5587;SDS011;2816;49.778;9.986;2023-04-15T08:58:40;5.13;;;3.90;;
5587;SDS011;2816;49.778;9.986;2023-04-15T09:01:09;5.17;;;4.10;;
5587;SDS011;2816;49.778;9.986;2023-04-15T09:03:37;4.67;;;3.70;;
5587;SDS011;2816;49.778;9.986;2023-04-15T09:06:05;3.80;;;3.43;;
5587;SDS011;2816;49.778;9.986;2023-04-15T09:08:32;4.87;;;4.07;;
5587;SDS011;2816;49.778;9.986;2023-04-15T09:11:01;3.60;;;2.60;;
5587;SDS011;2816;49.778;9.986;2023-04-15T09:13:29;5.30;;;3.20;;
5587;SDS011;2816;49.778;9.986;2023-04-15T09:15:56;2.70;;;2.20;;
5587;SDS011;2816;49.778;9.986;2023-04-15T09:18:26;7.57;;;3.03;;
5587;SDS011;2816;49.778;9.986;2023-04-15T09:20:54;3.67;;;2.93;;
5587;SDS011;2816;49.778;9.986;2023-04-15T09:23:21;6.20;;;3.53;;
5587;SDS011;2816;49.778;9.986;2023-04-15T09:25:49;7.60;;;3.10;;
5587;SDS011;2816;49.778;9.986;2023-04-15T09:28:23;4.23;;;3.07;;
5587;SDS011;2816;49.778;9.986;2023-04-15T09:30:54;4.13;;;3.20;;
5587;SDS011;2816;49.778;9.986;2023-04-15T09:33:22;17.67;;;4.80;;
5587;SDS011;2816;49.778;9.986;2023-04-15T09:35:55;7.23;;;4.13;;
5587;SDS011;2816;49.778;9.986;2023-04-15T09:38:23;5.53;;;2.20;;
5587;SDS011;2816;49.778;9.986;2023-04-15T09:40:51;3.23;;;2.93;;
5587;SDS011;2816;49.778;9.986;2023-04-15T09:43:17;4.63;;;3.37;;
5587;SDS011;2816;49.778;9.986;2023-04-15T09:45:50;4.43;;;3.00;;
5587;SDS011;2816;49.778;9.986;2023-04-15T09:48:18;2.83;;;2.63;;
5587;SDS011;2816;49.778;9.986;2023-04-15T09:50:46;3.63;;;3.07;;
5587;SDS011;2816;49.778;9.986;2023-04-15T09:53:18;2.67;;;2.47;;
5587;SDS011;2816;49.778;9.986;2023-04-15T09:55:48;3.90;;;3.50;;
5587;SDS011;2816;49.778;9.986;2023-04-15T09:58:17;3.70;;;3.10;;
5587;SDS011;2816;49.778;9.986;2023-04-15T10:00:45;6.00;;;4.97;;
5587;SDS011;2816;49.778;9.986;2023-04-15T10:03:16;3.93;;;3.07;;
5587;SDS011;2816;49.778;9.986;2023-04-15T10:05:46;4.03;;;3.40;;
5587;SDS011;2816;49.778;9.986;2023-04-15T10:08:15;5.23;;;2.87;;
5587;SDS011;2816;49.778;9.986;2023-04-15T10:10:44;3.20;;;2.90;;
5587;SDS011;2816;49.778;9.986;2023-04-15T10:13:12;3.87;;;2.67;;
5587;SDS011;2816;49.778;9.986;2023-04-15T10:15:40;3.60;;;3.30;;
5587;SDS011;2816;49.778;9.986;2023-04-15T10:18:09;2.97;;;2.77;;
5587;SDS011;2816;49.778;9.986;2023-04-15T10:20:40;4.60;;;2.83;;
5587;SDS011;2816;49.778;9.986;2023-04-15T10:23:07;3.20;;;2.50;;
5587;SDS011;2816;49.778;9.986;2023-04-15T10:25:35;2.63;;;2.30;;
5587;SDS011;2816;49.778;9.986;2023-04-15T10:28:03;3.37;;;1.73;;
5587;SDS011;2816;49.778;9.986;2023-04-15T10:30:31;2.33;;;2.20;;
5587;SDS011;2816;49.778;9.986;2023-04-15T10:32:59;6.73;;;2.90;;
5587;SDS011;2816;49.778;9.986;2023-04-15T10:35:27;3.03;;;1.57;;
5587;SDS011;2816;49.778;9.986;2023-04-15T10:37:56;2.27;;;2.07;;
5587;SDS011;2816;49.778;9.986;2023-04-15T10:40:24;2.63;;;2.07;;
5587;SDS011;2816;49.778;9.986;2023-04-15T10:42:52;3.93;;;2.00;;
5587;SDS011;2816;49.778;9.986;2023-04-15T10:45:20;6.37;;;2.27;;
5587;SDS011;2816;49.778;9.986;2023-04-15T10:47:50;2.30;;;1.63;;
5587;SDS011;2816;49.778;9.986;2023-04-15T10:50:19;3.03;;;2.23;;
5587;SDS011;2816;49.778;9.986;2023-04-15T10:52:49;2.20;;;1.53;;
5587;SDS011;2816;49.778;9.986;2023-04-15T10:55:19;4.27;;;2.00;;
5587;SDS011;2816;49.778;9.986;2023-04-15T10:57:53;1.93;;;1.60;;
5587;SDS011;2816;49.778;9.986;2023-04-15T11:00:23;2.60;;;2.10;;
5587;SDS011;2816;49.778;9.986;2023-04-15T11:02:52;2.33;;;1.60;;
5587;SDS011;2816;49.778;9.986;2023-04-15T11:05:21;1.67;;;1.57;;
5587;SDS011;2816;49.778;9.986;2023-04-15T11:08:09;1.47;;;1.27;;
5587;SDS011;2816;49.778;9.986;2023-04-15T11:13:23;1.97;;;1.50;;
5587;SDS011;2816;49.778;9.986;2023-04-15T11:15:57;1.53;;;1.43;;
5587;SDS011;2816;49.778;9.986;2023-04-15T11:18:26;6.27;;;1.80;;
5587;SDS011;2816;49.778;9.986;2023-04-15T11:20:55;1.70;;;1.47;;
5587;SDS011;2816;49.778;9.986;2023-04-15T11:23:27;4.90;;;2.20;;
5587;SDS011;2816;49.778;9.986;2023-04-15T11:25:58;1.77;;;1.67;;
5587;SDS011;2816;49.778;9.986;2023-04-15T11:28:25;2.33;;;1.70;;
5587;SDS011;2816;49.778;9.986;2023-04-15T11:30:53;1.70;;;1.60;;
5587;SDS011;2816;49.778;9.986;2023-04-15T11:33:21;2.40;;;1.60;;
5587;SDS011;2816;49.778;9.986;2023-04-15T11:35:49;3.23;;;2.10;;
5587;SDS011;2816;49.778;9.986;2023-04-15T11:38:16;3.50;;;2.00;;
5587;SDS011;2816;49.778;9.986;2023-04-15T11:40:43;2.00;;;1.90;;
5587;SDS011;2816;49.778;9.986;2023-04-15T11:43:12;1.90;;;1.80;;
5587;SDS011;2816;49.778;9.986;2023-04-15T11:45:50;2.17;;;1.90;;
5587;SDS011;2816;49.778;9.986;2023-04-15T11:48:19;2.87;;;2.67;;
5587;SDS011;2816;49.778;9.986;2023-04-15T11:50:51;5.27;;;4.10;;
5587;SDS011;2816;49.778;9.986;2023-04-15T11:53:20;3.80;;;3.40;;
5587;SDS011;2816;49.778;9.986;2023-04-15T11:55:48;3.00;;;2.80;;
5587;SDS011;2816;49.778;9.986;2023-04-15T11:58:18;2.50;;;2.30;;
5587;SDS011;2816;49.778;9.986;2023-04-15T12:00:47;2.77;;;2.37;;
5587;SDS011;2816;49.778;9.986;2023-04-15T12:03:17;2.97;;;2.70;;
5587;SDS011;2816;49.778;9.986;2023-04-15T12:06:07;2.00;;;1.90;;
5587;SDS011;2816;49.778;9.986;2023-04-15T12:11:37;4.30;;;1.87;;
5587;SDS011;2816;49.778;9.986;2023-04-15T12:14:15;2.87;;;2.13;;
5587;SDS011;2816;49.778;9.986;2023-04-15T12:16:47;2.30;;;2.13;;
5587;SDS011;2816;49.778;9.986;2023-04-15T12:19:15;3.83;;;2.17;;
5587;SDS011;2816;49.778;9.986;2023-04-15T12:21:44;3.90;;;2.70;;
5587;SDS011;2816;49.778;9.986;2023-04-15T12:24:13;3.23;;;2.60;;
5587;SDS011;2816;49.778;9.986;2023-04-15T12:26:43;4.10;;;2.90;;
5587;SDS011;2816;49.778;9.986;2023-04-15T12:29:12;5.03;;;2.70;;
5587;SDS011;2816;49.778;9.986;2023-04-15T12:31:48;7.33;;;3.77;;
5587;SDS011;2816;49.778;9.986;2023-04-15T12:34:16;6.50;;;3.73;;
5587;SDS011;2816;49.778;9.986;2023-04-15T12:36:44;4.73;;;2.63;;
5587;SDS011;2816;49.778;9.986;2023-04-15T12:39:11;7.50;;;3.27;;
5587;SDS011;2816;49.778;9.986;2023-04-15T12:41:38;10.73;;;4.33;;
5587;SDS011;2816;49.778;9.986;2023-04-15T12:44:06;2.90;;;2.40;;
5587;SDS011;2816;49.778;9.986;2023-04-15T12:46:34;5.30;;;2.90;;
5587;SDS011;2816;49.778;9.986;2023-04-15T12:49:01;4.00;;;2.77;;
5587;SDS011;2816;49.778;9.986;2023-04-15T12:51:28;4.03;;;2.60;;
5587;SDS011;2816;49.778;9.986;2023-04-15T12:53:56;11.50;;;4.30;;
5587;SDS011;2816;49.778;9.986;2023-04-15T12:56:23;4.73;;;3.10;;
5587;SDS011;2816;49.778;9.986;2023-04-15T12:58:51;8.00;;;3.40;;
5587;SDS011;2816;49.778;9.986;2023-04-15T13:01:18;5.30;;;2.70;;
5587;SDS011;2816;49.778;9.986;2023-04-15T13:03:46;12.37;;;4.90;;
5587;SDS011;2816;49.778;9.986;2023-04-15T13:06:14;6.97;;;3.73;;
5587;SDS011;2816;49.778;9.986;2023-04-15T13:08:41;5.27;;;3.40;;
5587;SDS011;2816;49.778;9.986;2023-04-15T13:11:08;6.30;;;3.10;;
5587;SDS011;2816;49.778;9.986;2023-04-15T13:13:35;7.97;;;3.83;;
5587;SDS011;2816;49.778;9.986;2023-04-15T13:16:02;8.17;;;4.10;;
5587;SDS011;2816;49.778;9.986;2023-04-15T13:18:30;16.30;;;6.23;;
5587;SDS011;2816;49.778;9.986;2023-04-15T13:21:00;12.13;;;5.27;;
5587;SDS011;2816;49.778;9.986;2023-04-15T13:23:27;4.83;;;3.30;;
5587;SDS011;2816;49.778;9.986;2023-04-15T13:25:54;3.73;;;2.77;;
5587;SDS011;2816;49.778;9.986;2023-04-15T13:28:21;9.97;;;4.50;;
5587;SDS011;2816;49.778;9.986;2023-04-15T13:30:48;10.00;;;3.83;;
5587;SDS011;2816;49.778;9.986;2023-04-15T13:33:15;12.20;;;5.20;;
5587;SDS011;2816;49.778;9.986;2023-04-15T13:35:42;11.67;;;4.87;;
5587;SDS011;2816;49.778;9.986;2023-04-15T13:38:11;5.40;;;2.97;;
5587;SDS011;2816;49.778;9.986;2023-04-15T13:40:38;10.00;;;4.60;;
5587;SDS011;2816;49.778;9.986;2023-04-15T13:43:04;4.13;;;2.53;;
5587;SDS011;2816;49.778;9.986;2023-04-15T13:45:31;4.50;;;2.17;;
5587;SDS011;2816;49.778;9.986;2023-04-15T13:47:58;4.17;;;2.60;;
5587;SDS011;2816;49.778;9.986;2023-04-15T13:50:26;9.20;;;3.47;;
5587;SDS011;2816;49.778;9.986;2023-04-15T13:52:53;11.70;;;4.40;;
5587;SDS011;2816;49.778;9.986;2023-04-15T13:55:21;9.17;;;3.57;;
5587;SDS011;2816;49.778;9.986;2023-04-15T13:57:48;8.00;;;2.93;;
5587;SDS011;2816;49.778;9.986;2023-04-15T14:00:15;13.93;;;5.33;;
5587;SDS011;2816;49.778;9.986;2023-04-15T14:02:42;11.17;;;4.27;;
5587;SDS011;2816;49.778;9.986;2023-04-15T14:05:10;12.20;;;3.83;;
5587;SDS011;2816;49.778;9.986;2023-04-15T14:07:37;2.90;;;2.57;;
5587;SDS011;2816;49.778;9.986;2023-04-15T14:10:04;5.50;;;3.03;;
5587;SDS011;2816;49.778;9.986;2023-04-15T14:12:33;10.50;;;5.50;;
5587;SDS011;2816;49.778;9.986;2023-04-15T14:15:00;4.27;;;2.60;;
5587;SDS011;2816;49.778;9.986;2023-04-15T14:17:27;8.23;;;3.23;;
5587;SDS011;2816;49.778;9.986;2023-04-15T14:19:55;3.67;;;2.30;;
5587;SDS011;2816;49.778;9.986;2023-04-15T14:22:22;8.83;;;3.87;;
5587;SDS011;2816;49.778;9.986;2023-04-15T14:24:49;5.80;;;3.40;;
5587;SDS011;2816;49.778;9.986;2023-04-15T14:27:17;8.10;;;3.57;;
5587;SDS011;2816;49.778;9.986;2023-04-15T14:29:46;6.83;;;2.90;;
5587;SDS011;2816;49.778;9.986;2023-04-15T14:32:12;6.10;;;2.80;;
5587;SDS011;2816;49.778;9.986;2023-04-15T14:34:40;9.20;;;2.10;;
5587;SDS011;2816;49.778;9.986;2023-04-15T14:37:07;17.40;;;5.27;;
5587;SDS011;2816;49.778;9.986;2023-04-15T14:39:34;35.70;;;10.10;;
5587;SDS011;2816;49.778;9.986;2023-04-15T14:42:00;19.53;;;9.60;;
5587;SDS011;2816;49.778;9.986;2023-04-15T14:44:27;6.47;;;3.83;;
5587;SDS011;2816;49.778;9.986;2023-04-15T14:46:56;5.63;;;2.57;;
5587;SDS011;2816;49.778;9.986;2023-04-15T14:49:23;7.17;;;3.93;;
5587;SDS011;2816;49.778;9.986;2023-04-15T14:51:50;4.03;;;2.67;;
5587;SDS011;2816;49.778;9.986;2023-04-15T14:54:17;8.20;;;4.10;;
5587;SDS011;2816;49.778;9.986;2023-04-15T14:56:44;2.80;;;1.90;;
5587;SDS011;2816;49.778;9.986;2023-04-15T14:59:11;2.33;;;1.80;;
5587;SDS011;2816;49.778;9.986;2023-04-15T15:01:37;3.60;;;2.00;;
5587;SDS011;2816;49.778;9.986;2023-04-15T15:04:06;6.73;;;2.50;;
5587;SDS011;2816;49.778;9.986;2023-04-15T15:06:34;9.87;;;3.17;;
5587;SDS011;2816;49.778;9.986;2023-04-15T15:09:01;1.90;;;1.80;;
5587;SDS011;2816;49.778;9.986;2023-04-15T15:11:28;2.30;;;1.90;;
5587;SDS011;2816;49.778;9.986;2023-04-15T15:13:55;4.00;;;2.00;;
5587;SDS011;2816;49.778;9.986;2023-04-15T15:16:22;2.17;;;1.97;;
5587;SDS011;2816;49.778;9.986;2023-04-15T15:18:50;2.20;;;1.87;;
5587;SDS011;2816;49.778;9.986;2023-04-15T15:21:18;5.90;;;3.40;;
5587;SDS011;2816;49.778;9.986;2023-04-15T15:23:45;6.73;;;2.50;;